Time;durP1;ratioP1;P1;durP2;ratioP2;P2;SDS_P1;SDS_P2;PMS_P1;PMS_P2;Temp;Humidity;BMP_temperature;BMP_pressure;BME280_temperature;BME280_humidity;BME280_pressure;Samples;Min_cycle;Max_cycle;Signal;HPM_P1;HPM_P2
2021/12/12 00:01:34;;;;;;;;;;;;;;;14.06;100.00;98684.13;5089967;28;19942;-83
2021/12/12 00:04:11;;;;;;;;;;;;;;;14.01;100.00;98686.75;5088853;28;19924;-83
2021/12/12 00:06:40;;;;;;;;;;;;;;;14.17;100.00;98690.16;5096432;28;20358;-82
2021/12/12 00:09:14;;;;;;;;;;;;;;;14.23;100.00;98688.34;5097748;28;19935;-82
2021/12/12 00:11:42;;;;;;;;;;;;;;;14.23;100.00;98687.53;5097438;28;19924;-82
2021/12/12 00:14:11;;;;;;;;;;;;;;;14.02;100.00;98691.09;5112977;28;19924;-83
2021/12/12 00:16:39;;;;;;;;;;;;;;;14.26;100.00;98681.81;5097585;28;19929;-83
2021/12/12 00:19:07;;;;;;;;;;;;;;;14.21;100.00;98678.75;5096335;28;19935;-83
2021/12/12 00:21:36;;;;;;;;;;;;;;;14.05;100.00;98682.56;5095658;28;19924;-83
2021/12/12 00:24:07;;;;;;;;;;;;;;;14.12;100.00;98681.50;5097297;28;19930;-83
2021/12/12 00:26:34;;;;;;;;;;;;;;;14.09;100.00;98682.41;5095913;28;19925;-83
2021/12/12 00:29:02;;;;;;;;;;;;;;;14.01;100.00;98683.94;5095661;28;20390;-83
2021/12/12 00:31:29;;;;;;;;;;;;;;;13.98;100.00;98682.03;5078920;28;19924;-83
2021/12/12 00:33:57;;;;;;;;;;;;;;;14.17;100.00;98695.78;5095337;28;19931;-83
2021/12/12 00:36:25;;;;;;;;;;;;;;;14.17;100.00;98689.34;5095704;28;20276;-83
2021/12/12 00:39:03;;;;;;;;;;;;;;;14.14;100.00;98693.09;5078734;28;20401;-83
2021/12/12 00:41:50;;;;;;;;;;;;;;;14.08;100.00;98689.28;5095118;28;19928;-83
2021/12/12 00:44:17;;;;;;;;;;;;;;;14.46;100.00;98690.69;5095353;28;19928;-84
2021/12/12 00:46:44;;;;;;;;;;;;;;;14.31;100.00;98683.25;5095230;28;20020;-84
2021/12/12 00:49:14;;;;;;;;;;;;;;;14.29;100.00;98680.13;5078379;28;19924;-84
2021/12/12 00:51:43;;;;;;;;;;;;;;;14.23;100.00;98681.91;5096282;28;19924;-84
2021/12/12 00:54:11;;;;;;;;;;;;;;;14.36;100.00;98691.09;5096551;28;20351;-84
2021/12/12 00:56:38;;;;;;;;;;;;;;;14.36;100.00;98686.25;5095265;28;20030;-84
2021/12/12 00:59:06;;;;;;;;;;;;;;;14.36;100.00;98685.47;5078619;28;19924;-84
2021/12/12 01:01:37;;;;;;;;;;;;;;;14.06;100.00;98683.34;5043399;28;20031;-84
2021/12/12 01:04:11;;;;;;;;;;;;;;;13.99;100.00;98689.22;5095047;28;19924;-83
2021/12/12 01:06:38;;;;;;;;;;;;;;;14.08;100.00;98684.47;5111938;28;20073;-84
2021/12/12 01:09:09;;;;;;;;;;;;;;;13.96;100.00;98684.50;5094829;28;19931;-84
2021/12/12 01:11:39;;;;;;;;;;;;;;;13.91;100.00;98687.88;5095040;28;19959;-84
2021/12/12 01:14:09;;;;;;;;;;;;;;;14.09;100.00;98683.22;5096209;28;19924;-84
2021/12/12 01:16:41;;;;;;;;;;;;;;;14.00;100.00;98685.16;5094846;28;19924;-84
2021/12/12 01:19:16;;;;;;;;;;;;;;;14.20;100.00;98694.06;5094912;28;19924;-84
2021/12/12 01:21:46;;;;;;;;;;;;;;;14.32;100.00;98690.44;5095801;28;19924;-84
2021/12/12 01:24:36;;;;;;;;;;;;;;;13.99;100.00;98694.84;5077808;28;19924;-84
2021/12/12 01:27:04;;;;;;;;;;;;;;;13.99;100.00;98703.25;5081783;28;20393;-84
2021/12/12 01:29:32;;;;;;;;;;;;;;;14.07;100.00;98707.41;5094375;28;19924;-84
2021/12/12 01:32:01;;;;;;;;;;;;;;;14.20;100.00;98716.53;5094415;28;19924;-84
2021/12/12 01:34:29;;;;;;;;;;;;;;;14.28;100.00;98717.91;5094357;28;19935;-84
2021/12/12 01:39:42;;;;;;;;;;;;;;;13.92;100.00;98717.53;5094081;28;19924;-84
2021/12/12 01:42:30;;;;;;;;;;;;;;;13.85;100.00;98726.22;5094112;28;19950;-84
2021/12/12 01:44:57;;;;;;;;;;;;;;;13.69;100.00;98724.31;5094115;28;19924;-84
2021/12/12 01:47:27;;;;;;;;;;;;;;;13.93;100.00;98733.94;5092192;28;19924;-84
2021/12/12 01:49:57;;;;;;;;;;;;;;;13.76;100.00;98734.53;5094017;28;20279;-84
2021/12/12 01:52:25;;;;;;;;;;;;;;;13.95;100.00;98744.75;5094123;28;19931;-84
2021/12/12 01:54:57;;;;;;;;;;;;;;;13.75;100.00;98736.56;5094773;28;19924;-84
2021/12/12 01:57:26;;;;;;;;;;;;;;;13.60;100.00;98731.91;5110793;28;20016;-84
2021/12/12 01:59:54;;;;;;;;;;;;;;;13.61;100.00;98748.28;5095092;28;19985;-84
2021/12/12 02:02:30;;;;;;;;;;;;;;;13.85;100.00;98751.47;5076890;28;19924;-84
2021/12/12 02:05:00;;;;;;;;;;;;;;;13.73;100.00;98752.28;5093723;28;19924;-84
2021/12/12 02:07:29;;;;;;;;;;;;;;;13.73;100.00;98755.09;5094898;28;19935;-84
2021/12/12 02:09:58;;;;;;;;;;;;;;;13.80;100.00;98760.47;5093359;28;20403;-84
2021/12/12 02:12:27;;;;;;;;;;;;;;;13.70;100.00;98764.44;5094967;28;19960;-84
2021/12/12 02:14:57;;;;;;;;;;;;;;;13.73;100.00;98760.72;5076936;28;19924;-84
2021/12/12 02:17:34;;;;;;;;;;;;;;;13.75;100.00;98761.06;5110357;28;19978;-83
2021/12/12 02:20:21;;;;;;;;;;;;;;;13.75;100.00;98766.69;5109746;28;20309;-83
2021/12/12 02:36:51;;;;;;;;;;;;;;;14.08;100.00;98770.75;5094389;28;19931;-84
2021/12/12 02:39:20;;;;;;;;;;;;;;;13.93;100.00;98778.09;5094296;28;19978;-84
2021/12/12 02:41:49;;;;;;;;;;;;;;;13.98;100.00;98778.31;5076352;28;19924;-84
2021/12/12 02:44:18;;;;;;;;;;;;;;;13.98;100.00;98777.53;5093457;28;19924;-83
2021/12/12 02:46:45;;;;;;;;;;;;;;;13.60;100.00;98783.19;5093030;28;20382;-84
2021/12/12 02:49:36;;;;;;;;;;;;;;;13.74;100.00;98785.53;5093071;28;20420;-83
2021/12/12 02:52:07;;;;;;;;;;;;;;;13.79;100.00;98781.38;5075999;28;19931;-84
2021/12/12 02:54:35;;;;;;;;;;;;;;;13.85;100.00;98782.38;5093125;28;19924;-84
2021/12/12 02:57:02;;;;;;;;;;;;;;;13.74;100.00;98785.53;5093233;28;20005;-83
2021/12/12 02:59:30;;;;;;;;;;;;;;;13.76;100.00;98793.50;5076486;28;19924;-83
2021/12/12 03:01:59;;;;;;;;;;;;;;;13.94;100.00;98793.69;5093911;28;19925;-84
2021/12/12 03:04:28;;;;;;;;;;;;;;;13.66;100.00;98794.66;5093122;28;20368;-83
2021/12/12 03:06:55;;;;;;;;;;;;;;;13.74;100.00;98796.78;5075814;28;19978;-83
2021/12/12 03:09:26;;;;;;;;;;;;;;;13.77;100.00;98795.06;5093004;28;19961;-84
2021/12/12 03:11:57;;;;;;;;;;;;;;;13.60;100.00;98802.06;5092853;28;20382;-84
2021/12/12 03:14:31;;;;;;;;;;;;;;;13.74;100.00;98807.22;5092797;28;19924;-83
2021/12/12 03:17:07;;;;;;;;;;;;;;;13.97;100.00;98801.22;5109719;28;20077;-82
2021/12/12 03:19:34;;;;;;;;;;;;;;;13.91;100.00;98789.00;5110308;28;20359;-83
2021/12/12 03:22:04;;;;;;;;;;;;;;;14.04;100.00;98787.72;5109443;28;19924;-83
2021/12/12 03:24:32;;;;;;;;;;;;;;;14.21;100.00;98788.34;5093357;28;19924;-83
2021/12/12 03:27:00;;;;;;;;;;;;;;;14.14;100.00;98785.78;5093016;28;19935;-83
2021/12/12 03:29:27;;;;;;;;;;;;;;;14.15;100.00;98784.53;5094066;28;19928;-83
2021/12/12 03:31:58;;;;;;;;;;;;;;;14.09;100.00;98789.16;5092955;28;20010;-83
2021/12/12 03:34:27;;;;;;;;;;;;;;;14.16;100.00;98788.94;5076561;28;19974;-83
2021/12/12 03:36:54;;;;;;;;;;;;;;;13.97;100.00;98784.38;5097587;28;20393;-83
2021/12/12 03:39:23;;;;;;;;;;;;;;;14.08;100.00;98787.63;5098133;28;19928;-83
2021/12/12 03:41:52;;;;;;;;;;;;;;;14.03;100.00;98788.97;5097714;28;19958;-83
2021/12/12 03:44:20;;;;;;;;;;;;;;;13.79;100.00;98792.59;5080166;28;19994;-83
2021/12/12 03:46:48;;;;;;;;;;;;;;;13.66;100.00;98794.66;5096618;28;19924;-82
2021/12/12 03:49:16;;;;;;;;;;;;;;;13.78;100.00;98808.66;5113604;28;19977;-82
2021/12/12 03:51:44;;;;;;;;;;;;;;;13.95;100.00;98812.16;5096351;28;20061;-82
2021/12/12 03:54:11;;;;;;;;;;;;;;;13.87;100.00;98820.00;5097792;28;19924;-83
2021/12/12 03:56:40;;;;;;;;;;;;;;;14.10;100.00;98819.63;5096857;28;20527;-82
2021/12/12 03:59:07;;;;;;;;;;;;;;;14.23;100.00;98817.63;5113319;28;19931;-83
2021/12/12 04:01:37;;;;;;;;;;;;;;;14.13;100.00;98823.56;5097938;28;20000;-83
2021/12/12 04:04:11;;;;;;;;;;;;;;;14.32;100.00;98819.72;5096204;28;19968;-83
2021/12/12 04:06:39;;;;;;;;;;;;;;;14.15;100.00;98821.06;5097428;28;20505;-83
2021/12/12 04:09:08;;;;;;;;;;;;;;;13.91;100.00;98822.69;5062654;28;20353;-83
2021/12/12 04:11:36;;;;;;;;;;;;;;;13.75;100.00;98820.03;5112952;28;19924;-83
2021/12/12 04:14:04;;;;;;;;;;;;;;;14.01;100.00;98824.38;5097333;28;19924;-83
2021/12/12 04:16:41;;;;;;;;;;;;;;;13.91;100.00;98822.69;5111917;28;19924;-83
2021/12/12 04:19:10;;;;;;;;;;;;;;;14.15;100.00;98835.13;5096177;28;19928;-83
2021/12/12 04:21:37;;;;;;;;;;;;;;;13.84;100.00;98825.75;5097124;28;20396;-83
2021/12/12 04:24:06;;;;;;;;;;;;;;;13.94;100.00;98830.22;5079184;28;19968;-83
2021/12/12 04:26:36;;;;;;;;;;;;;;;14.11;100.00;98826.84;5095725;28;19924;-83
2021/12/12 04:29:03;;;;;;;;;;;;;;;13.89;100.00;98830.78;5112506;28;20014;-84
2021/12/12 04:31:30;;;;;;;;;;;;;;;14.06;100.00;98835.03;5095781;28;19936;-84
2021/12/12 04:33:57;;;;;;;;;;;;;;;13.28;100.00;98836.75;5112071;28;20038;-84
2021/12/12 04:36:36;;;;;;;;;;;;;;;13.75;100.00;98828.44;5096682;28;19973;-83
2021/12/12 04:39:14;;;;;;;;;;;;;;;13.54;100.00;98831.94;5096826;28;19924;-83
2021/12/12 04:41:42;;;;;;;;;;;;;;;13.24;100.00;98830.44;5095486;28;19965;-84
2021/12/12 04:44:09;;;;;;;;;;;;;;;13.20;100.00;98828.97;5095455;28;19997;-83
2021/12/12 04:52:19;;;;;;;;;;;;;;;13.66;100.00;98839.56;5095255;28;19969;-83
2021/12/12 04:54:54;;;;;;;;;;;;;;;13.24;100.00;98840.91;5061563;28;19931;-84
2021/12/12 04:57:25;;;;;;;;;;;;;;;13.21;100.00;98845.34;5078331;28;20019;-84
2021/12/12 05:00:12;;;;;;;;;;;;;;;13.31;100.00;98840.66;5076783;28;19925;-84
2021/12/12 05:02:48;;;;;;;;;;;;;;;13.14;100.00;98847.59;5074625;28;19928;-83
2021/12/12 05:05:18;;;;;;;;;;;;;;;13.55;100.00;98850.34;5075410;28;19924;-84
2021/12/12 05:07:51;;;;;;;;;;;;;;;13.45;100.00;98852.25;5076023;28;20362;-83
2021/12/12 05:10:24;;;;;;;;;;;;;;;13.49;100.00;98855.75;5058082;28;19928;-84
2021/12/12 05:12:56;;;;;;;;;;;;;;;13.54;100.00;98854.41;5091490;28;20015;-84
2021/12/12 05:15:43;;;;;;;;;;;;;;;13.63;100.00;98846.84;5074609;28;19925;-84
2021/12/12 05:18:18;;;;;;;;;;;;;;;13.63;100.00;98852.47;5075518;28;19929;-84
2021/12/12 05:20:52;;;;;;;;;;;;;;;13.66;100.00;98856.41;5074557;28;19963;-84
2021/12/12 05:23:21;;;;;;;;;;;;;;;13.58;100.00;98849.44;5091116;28;19972;-84
2021/12/12 05:25:57;;;;;;;;;;;;;;;13.52;100.00;98851.25;5091259;28;19924;-84
2021/12/12 05:28:29;;;;;;;;;;;;;;;13.42;100.00;98846.75;5091465;28;19924;-84
2021/12/12 05:30:57;;;;;;;;;;;;;;;13.47;100.00;98852.59;5074454;28;19924;-84
2021/12/12 05:33:26;;;;;;;;;;;;;;;13.51;100.00;98856.06;5090691;28;20004;-83
2021/12/12 05:35:54;;;;;;;;;;;;;;;13.53;100.00;98856.41;5075738;28;19924;-84
2021/12/12 05:38:22;;;;;;;;;;;;;;;13.39;100.00;98864.47;5090784;28;20394;-83
2021/12/12 05:40:49;;;;;;;;;;;;;;;13.10;100.00;98866.56;5074294;28;19931;-83
2021/12/12 05:43:17;;;;;;;;;;;;;;;13.13;100.00;98860.06;5075169;28;20371;-83
2021/12/12 05:45:44;;;;;;;;;;;;;;;13.28;100.00;98864.81;5057532;28;20355;-83
2021/12/12 05:48:13;;;;;;;;;;;;;;;13.43;100.00;98853.94;5073984;28;19936;-81
2021/12/12 05:50:41;;;;;;;;;;;;;;;13.55;100.00;98855.97;5091038;28;19936;-84
2021/12/12 05:53:08;;;;;;;;;;;;;;;13.28;100.00;98847.97;5073759;28;20023;-82
2021/12/12 05:55:37;;;;;;;;;;;;;;;13.46;100.00;98858.66;5075999;28;19931;-84
2021/12/12 05:58:07;;;;;;;;;;;;;;;13.51;100.00;98849.69;5094652;28;19924;-84
2021/12/12 06:00:37;;;;;;;;;;;;;;;13.55;100.00;98862.38;5093830;28;19932;-84
2021/12/12 06:03:11;;;;;;;;;;;;;;;13.61;100.00;98856.97;5095162;28;19930;-84
2021/12/12 06:05:38;;;;;;;;;;;;;;;13.66;100.00;98862.81;5074525;28;19924;-84
2021/12/12 06:08:06;;;;;;;;;;;;;;;13.67;100.00;98872.03;5074515;28;20397;-84
2021/12/12 06:10:37;;;;;;;;;;;;;;;13.64;100.00;98870.09;5074856;28;19932;-84
2021/12/12 06:13:09;;;;;;;;;;;;;;;13.72;100.00;98865.84;5074831;28;20023;-84
2021/12/12 06:15:37;;;;;;;;;;;;;;;13.73;100.00;98867.41;5090157;28;19928;-84
2021/12/12 06:18:04;;;;;;;;;;;;;;;13.66;100.00;98864.84;5056732;28;20402;-84
2021/12/12 06:20:31;;;;;;;;;;;;;;;13.60;100.00;98872.25;5074479;28;20481;-84
2021/12/12 06:22:58;;;;;;;;;;;;;;;13.65;100.00;98883.69;5073314;28;19986;-84
2021/12/12 06:25:26;;;;;;;;;;;;;;;13.65;100.00;98877.28;5073257;28;19924;-84
2021/12/12 06:27:54;;;;;;;;;;;;;;;13.04;100.00;98876.75;5074307;28;19971;-83
2021/12/12 06:30:24;;;;;;;;;;;;;;;12.47;100.00;98885.88;5072709;28;20382;-84
2021/12/12 06:32:52;;;;;;;;;;;;;;;12.81;100.00;98891.78;5074142;28;19924;-84
2021/12/12 06:35:21;;;;;;;;;;;;;;;13.12;100.00;98903.34;5073553;28;20452;-84
2021/12/12 06:37:48;;;;;;;;;;;;;;;13.29;100.00;98899.25;5072972;28;20032;-84
2021/12/12 06:40:19;;;;;;;;;;;;;;;13.34;100.00;98895.91;5073213;28;20385;-84
2021/12/12 06:42:48;;;;;;;;;;;;;;;13.38;100.00;98888.94;5089848;28;19978;-84
2021/12/12 06:45:16;;;;;;;;;;;;;;;13.47;100.00;98893.88;5089781;28;19993;-84
2021/12/12 06:47:44;;;;;;;;;;;;;;;13.53;100.00;98897.72;5072864;28;19924;-84
2021/12/12 06:50:11;;;;;;;;;;;;;;;13.58;100.00;98894.34;5072982;28;20295;-84
2021/12/12 06:52:39;;;;;;;;;;;;;;;13.51;100.00;98900.97;5072903;28;19931;-84
2021/12/12 06:55:08;;;;;;;;;;;;;;;13.48;100.00;98901.09;5074236;28;19952;-84
2021/12/12 06:57:35;;;;;;;;;;;;;;;13.48;100.00;98910.28;5056396;28;20259;-84
2021/12/12 07:00:04;;;;;;;;;;;;;;;12.94;100.00;98903.03;5073691;28;20382;-84
2021/12/12 07:02:31;;;;;;;;;;;;;;;12.82;100.00;98900.97;5056563;28;20302;-83
2021/12/12 07:04:58;;;;;;;;;;;;;;;12.86;100.00;98898.88;5089738;28;20053;-84
2021/12/12 07:07:26;;;;;;;;;;;;;;;13.12;100.00;98906.16;5089562;28;19930;-83
2021/12/12 07:09:54;;;;;;;;;;;;;;;13.28;100.00;98908.91;5073539;28;20274;-83
2021/12/12 07:12:23;;;;;;;;;;;;;;;13.32;100.00;98912.38;5074215;28;20393;-83
2021/12/12 07:14:52;;;;;;;;;;;;;;;13.36;100.00;98910.28;5072774;28;20546;-85
2021/12/12 07:17:22;;;;;;;;;;;;;;;13.41;100.00;98912.50;5091166;28;19928;-83
2021/12/12 07:19:50;;;;;;;;;;;;;;;13.32;100.00;98910.38;5090513;28;19970;-83
2021/12/12 07:22:18;;;;;;;;;;;;;;;13.45;100.00;98913.22;5092758;28;19924;-83
2021/12/12 07:24:45;;;;;;;;;;;;;;;13.49;100.00;98908.28;5093738;28;19924;-83
2021/12/12 07:27:15;;;;;;;;;;;;;;;13.50;100.00;98910.63;5093642;28;19924;-83
2021/12/12 07:29:42;;;;;;;;;;;;;;;13.50;100.00;98904.22;5092506;28;19924;-83
2021/12/12 07:32:09;;;;;;;;;;;;;;;13.46;100.00;98909.16;5068293;28;19931;-83
2021/12/12 07:34:37;;;;;;;;;;;;;;;13.19;100.00;98903.16;5085174;28;19930;-83
2021/12/12 07:37:06;;;;;;;;;;;;;;;13.01;100.00;98906.44;5083295;28;19931;-83
2021/12/12 07:39:33;;;;;;;;;;;;;;;13.20;100.00;98913.13;5073681;28;19932;-83
2021/12/12 07:42:01;;;;;;;;;;;;;;;13.19;100.00;98912.34;5089271;28;20383;-83
2021/12/12 07:44:29;;;;;;;;;;;;;;;13.18;100.00;98921.19;5064591;28;19966;-83
2021/12/12 07:46:58;;;;;;;;;;;;;;;13.34;100.00;98915.53;5074064;28;19970;-83
2021/12/12 07:49:27;;;;;;;;;;;;;;;13.31;100.00;98911.63;5056007;28;19924;-81
2021/12/12 07:51:54;;;;;;;;;;;;;;;13.37;100.00;98917.44;5072702;28;19931;-83
2021/12/12 07:54:21;;;;;;;;;;;;;;;13.46;100.00;98920.38;5092548;28;19935;-83
2021/12/12 07:56:49;;;;;;;;;;;;;;;13.45;100.00;98918.81;5093638;28;20392;-83
2021/12/12 07:59:17;;;;;;;;;;;;;;;13.47;100.00;98910.72;5075440;28;19924;-83
2021/12/12 08:01:46;;;;;;;;;;;;;;;13.58;100.00;98922.44;5093802;28;19924;-83
2021/12/12 08:04:14;;;;;;;;;;;;;;;13.16;100.00;98920.88;5092602;28;19977;-83
2021/12/12 08:06:42;;;;;;;;;;;;;;;13.47;100.00;98922.75;5092512;28;19932;-83
2021/12/12 08:09:10;;;;;;;;;;;;;;;13.60;100.00;98929.16;5092346;28;20366;-83
2021/12/12 08:11:38;;;;;;;;;;;;;;;13.60;100.00;98919.97;5109398;28;20319;-80
2021/12/12 08:14:08;;;;;;;;;;;;;;;13.71;100.00;98921.22;5083518;28;20367;-83
2021/12/12 08:16:35;;;;;;;;;;;;;;;13.85;100.00;98936.84;5073577;28;19974;-83
2021/12/12 08:19:02;;;;;;;;;;;;;;;13.89;100.00;98935.50;5081406;28;20362;-83
2021/12/12 08:21:33;;;;;;;;;;;;;;;13.86;100.00;98938.41;5094713;28;20014;-83
2021/12/12 08:24:04;;;;;;;;;;;;;;;13.71;100.00;98945.69;5092835;28;20403;-84
2021/12/12 08:26:32;;;;;;;;;;;;;;;13.93;100.00;98941.00;5078386;28;19928;-81
2021/12/12 08:28:59;;;;;;;;;;;;;;;13.97;100.00;98950.09;5086651;28;19924;-83
2021/12/12 08:31:26;;;;;;;;;;;;;;;14.02;100.00;98949.53;5084707;28;19924;-82
2021/12/12 08:33:54;;;;;;;;;;;;;;;14.05;100.00;98957.06;5112250;28;19924;-84
2021/12/12 08:36:21;;;;;;;;;;;;;;;14.20;100.00;98959.00;5095742;28;19979;-84
2021/12/12 08:38:48;;;;;;;;;;;;;;;14.20;100.00;98963.81;5097241;28;19974;-84
2021/12/12 08:41:16;;;;;;;;;;;;;;;14.31;100.00;98967.88;5096676;28;19935;-84
2021/12/12 08:43:43;;;;;;;;;;;;;;;13.93;100.00;98971.91;5085334;28;19924;-83
2021/12/12 08:46:12;;;;;;;;;;;;;;;14.12;100.00;98973.69;5091848;28;19974;-84
2021/12/12 08:48:41;;;;;;;;;;;;;;;14.12;100.00;98974.50;5075432;28;19925;-83
2021/12/12 08:51:11;;;;;;;;;;;;;;;14.19;100.00;98979.09;5076444;28;19932;-82
2021/12/12 08:53:39;;;;;;;;;;;;;;;14.20;100.00;98975.84;5061852;28;19924;-83
2021/12/12 08:56:09;;;;;;;;;;;;;;;14.35;100.00;98976.19;5055940;28;20336;-81
2021/12/12 08:58:36;;;;;;;;;;;;;;;14.33;100.00;98981.47;5090970;28;20499;-83
2021/12/12 09:01:08;;;;;;;;;;;;;;;14.19;100.00;98984.72;5088196;28;19930;-82
2021/12/12 09:03:35;;;;;;;;;;;;;;;14.19;100.00;98991.13;5069147;28;19925;-83
2021/12/12 09:06:03;;;;;;;;;;;;;;;14.48;100.00;98990.25;5069533;28;19928;-81
2021/12/12 09:08:33;;;;;;;;;;;;;;;14.24;100.00;98998.22;5069326;28;19928;-82
2021/12/12 09:11:19;;;;;;;;;;;;;;;14.33;100.00;99003.97;5070380;28;20538;-79
2021/12/12 09:13:49;;;;;;;;;;;;;;;14.33;100.00;98999.13;5090161;28;19931;-79
2021/12/12 09:16:20;;;;;;;;;;;;;;;14.32;100.00;99010.81;5081650;28;19971;-80
2021/12/12 09:18:53;;;;;;;;;;;;;;;14.36;100.00;99014.31;5086339;28;19952;-81
2021/12/12 09:21:26;;;;;;;;;;;;;;;14.65;100.00;99020.59;5083363;28;19974;-79
2021/12/12 09:24:16;;;;;;;;;;;;;;;14.46;100.00;99022.38;5085198;28;20439;-79
2021/12/12 09:26:46;;;;;;;;;;;;;;;14.40;100.00;99029.81;5086204;28;19939;-80
2021/12/12 09:29:29;;;;;;;;;;;;;;;14.56;100.00;99026.09;5094042;28;20019;-79
2021/12/12 09:32:02;;;;;;;;;;;;;;;14.30;100.00;99035.78;5086691;28;19928;-79
2021/12/12 09:34:59;;;;;;;;;;;;;;;14.22;100.00;99040.03;5064388;28;20013;-79
2021/12/12 09:37:30;;;;;;;;;;;;;;;14.20;100.00;99032.06;5070242;28;19958;-79
2021/12/12 09:40:17;;;;;;;;;;;;;;;14.37;100.00;99027.13;5086750;28;19939;-79
2021/12/12 09:42:49;;;;;;;;;;;;;;;14.53;100.00;99032.63;5073040;28;19951;-79
2021/12/12 09:45:35;;;;;;;;;;;;;;;14.78;100.00;99032.63;5087562;28;19959;-81
2021/12/12 09:51:16;;;;;;;;;;;;;;;14.32;100.00;99038.94;5094548;28;19931;-77
2021/12/12 09:54:02;;;;;;;;;;;;;;;14.38;100.00;99037.13;5094982;28;19970;-77
2021/12/12 09:56:44;;;;;;;;;;;;;;;14.56;100.00;99042.19;5094955;28;19969;-78
2021/12/12 09:59:14;;;;;;;;;;;;;;;15.01;100.00;99040.66;5085341;28;19933;-77
2021/12/12 10:01:52;;;;;;;;;;;;;;;14.83;100.00;99040.47;5080287;28;19981;-77
2021/12/12 10:04:22;;;;;;;;;;;;;;;14.77;100.00;99042.28;5073314;28;19924;-77
2021/12/12 10:06:58;;;;;;;;;;;;;;;14.94;100.00;99048.53;5087686;28;20007;-78
2021/12/12 10:09:29;;;;;;;;;;;;;;;14.89;100.00;99044.28;5071636;28;19925;-77
2021/12/12 10:12:14;;;;;;;;;;;;;;;14.66;100.00;99043.88;5072088;28;20272;-77
2021/12/12 10:14:46;;;;;;;;;;;;;;;14.80;100.00;99046.22;5072930;28;19970;-77
2021/12/12 10:17:26;;;;;;;;;;;;;;;14.62;100.00;99046.00;5073451;28;19932;-77
2021/12/12 10:19:59;;;;;;;;;;;;;;;14.93;100.00;99039.34;5073649;28;19944;-77
2021/12/12 10:22:45;;;;;;;;;;;;;;;14.92;100.00;99037.75;5073415;28;20437;-77
2021/12/12 10:25:14;;;;;;;;;;;;;;;15.05;100.00;99037.72;5089010;28;20303;-77
2021/12/12 10:27:53;;;;;;;;;;;;;;;15.07;100.00;99043.69;5073556;28;20489;-77
2021/12/12 10:30:31;;;;;;;;;;;;;;;14.90;100.00;99045.06;5073419;28;19924;-77
2021/12/12 10:33:05;;;;;;;;;;;;;;;15.23;100.00;99040.72;5073360;28;19954;-77
2021/12/12 10:35:50;;;;;;;;;;;;;;;15.08;100.00;99040.44;5072337;28;19934;-77
2021/12/12 10:38:24;;;;;;;;;;;;;;;15.18;100.00;99033.63;5071965;28;20284;-77
2021/12/12 10:41:01;;;;;;;;;;;;;;;15.21;100.00;99032.72;5072071;28;20032;-77
2021/12/12 10:43:37;;;;;;;;;;;;;;;15.14;100.00;99038.59;5073386;28;19959;-77
2021/12/12 10:46:11;;;;;;;;;;;;;;;14.96;100.00;99038.44;5073301;28;19924;-77
2021/12/12 10:48:43;;;;;;;;;;;;;;;14.91;100.00;99039.00;5072063;28;19974;-77
2021/12/12 10:51:12;;;;;;;;;;;;;;;15.10;100.00;99037.94;5072821;28;19925;-77
2021/12/12 10:53:43;;;;;;;;;;;;;;;15.14;100.00;99044.25;5073239;28;19924;-77
2021/12/12 10:56:22;;;;;;;;;;;;;;;15.06;100.00;99039.28;5071945;28;19925;-77
2021/12/12 10:58:53;;;;;;;;;;;;;;;14.99;100.00;99045.97;5073170;28;20451;-77
2021/12/12 11:01:20;;;;;;;;;;;;;;;15.19;100.00;99035.19;5072949;28;19925;-78
2021/12/12 11:03:52;;;;;;;;;;;;;;;15.16;100.00;99036.09;5073004;28;19928;-78
2021/12/12 11:06:27;;;;;;;;;;;;;;;14.96;100.00;99035.63;5072675;28;19925;-77
2021/12/12 11:08:54;;;;;;;;;;;;;;;15.32;100.00;99035.97;5071589;28;19924;-77
2021/12/12 11:11:23;;;;;;;;;;;;;;;15.12;100.00;99037.47;5088466;28;19960;-77
2021/12/12 11:14:09;;;;;;;;;;;;;;;15.28;100.00;99045.78;5073075;28;20393;-77
2021/12/12 11:16:39;;;;;;;;;;;;;;;15.31;100.00;99040.00;5088542;28;19939;-77
2021/12/12 11:19:14;;;;;;;;;;;;;;;15.28;100.00;99037.31;5072767;28;20382;-77
2021/12/12 11:21:46;;;;;;;;;;;;;;;15.33;100.00;99037.53;5071713;28;20272;-77
2021/12/12 11:24:18;;;;;;;;;;;;;;;15.25;100.00;99033.38;5072915;28;19929;-78
2021/12/12 11:26:48;;;;;;;;;;;;;;;15.27;100.00;99028.09;5071736;28;19925;-77
2021/12/12 11:29:18;;;;;;;;;;;;;;;15.13;100.00;99033.44;5072134;28;19947;-77
2021/12/12 11:31:55;;;;;;;;;;;;;;;14.85;100.00;99029.56;5085656;28;19967;-77
2021/12/12 11:34:34;;;;;;;;;;;;;;;14.98;100.00;99035.16;5092580;28;19924;-78
2021/12/12 11:37:16;;;;;;;;;;;;;;;15.12;100.00;99043.91;5092981;28;19993;-77
2021/12/12 11:39:50;;;;;;;;;;;;;;;15.11;100.00;99041.53;5092975;28;19931;-76
2021/12/12 11:42:36;;;;;;;;;;;;;;;15.39;100.00;99055.44;5108735;28;19956;-77
2021/12/12 11:45:09;;;;;;;;;;;;;;;15.03;100.00;99046.63;5092022;28;20350;-77
2021/12/12 11:47:53;;;;;;;;;;;;;;;15.24;100.00;99053.53;5092161;28;20030;-77
2021/12/12 11:50:28;;;;;;;;;;;;;;;15.15;100.00;99048.63;5093097;28;20343;-77
2021/12/12 11:52:55;;;;;;;;;;;;;;;15.06;100.00;99037.28;5093563;28;20419;-77
2021/12/12 11:55:27;;;;;;;;;;;;;;;15.13;100.00;99048.28;5093787;28;20027;-78
2021/12/12 11:57:58;;;;;;;;;;;;;;;15.16;100.00;99052.22;5096685;28;20358;-77
2021/12/12 12:00:31;;;;;;;;;;;;;;;15.29;100.00;99045.31;5096631;28;19928;-77
2021/12/12 12:03:21;;;;;;;;;;;;;;;15.25;100.00;99039.00;5096394;28;19924;-77
2021/12/12 12:06:07;;;;;;;;;;;;;;;14.92;100.00;99049.00;5096631;28;19989;-78
2021/12/12 12:08:55;;;;;;;;;;;;;;;15.17;100.00;99037.69;5092477;28;19932;-77
2021/12/12 12:11:40;;;;;;;;;;;;;;;14.99;100.00;99026.28;5100581;28;19928;-78
2021/12/12 12:14:10;;;;;;;;;;;;;;;15.04;100.00;99024.91;5096936;28;20351;-77
2021/12/12 12:16:46;;;;;;;;;;;;;;;15.41;100.00;99015.56;5096931;28;19924;-77
2021/12/12 12:19:25;;;;;;;;;;;;;;;15.01;100.00;99029.41;5095551;28;19924;-77
2021/12/12 12:21:52;;;;;;;;;;;;;;;15.27;100.00;99018.84;5095718;28;19928;-77
2021/12/12 12:24:28;;;;;;;;;;;;;;;15.15;100.00;99017.66;5095700;28;20336;-77
2021/12/12 12:27:02;;;;;;;;;;;;;;;15.29;100.00;99022.78;5096883;28;19924;-77
2021/12/12 12:29:33;;;;;;;;;;;;;;;15.23;100.00;99019.00;5095403;28;19928;-77
2021/12/12 12:32:26;;;;;;;;;;;;;;;15.10;100.00;99025.91;5112267;28;19928;-77
2021/12/12 12:35:05;;;;;;;;;;;;;;;15.05;100.00;99016.00;5088133;28;20382;-77
2021/12/12 12:37:41;;;;;;;;;;;;;;;15.39;100.00;99021.66;5107442;28;19939;-77
2021/12/12 12:40:27;;;;;;;;;;;;;;;15.52;100.00;99010.34;5089225;28;19924;-77
2021/12/12 12:43:20;;;;;;;;;;;;;;;15.62;100.00;99009.16;5102851;28;20068;-78
2021/12/12 12:46:06;;;;;;;;;;;;;;;15.43;100.00;99013.88;5094691;28;19924;-78
2021/12/12 12:48:53;;;;;;;;;;;;;;;15.27;100.00;99008.38;5088272;28;19924;-78
2021/12/12 12:51:46;;;;;;;;;;;;;;;15.55;100.00;99017.88;5094881;28;20388;-77
2021/12/12 12:54:27;;;;;;;;;;;;;;;15.67;100.00;99003.72;5103955;28;19928;-77
2021/12/12 12:57:06;;;;;;;;;;;;;;;15.27;100.00;99005.56;5096440;28;19967;-77
2021/12/12 12:59:54;;;;;;;;;;;;;;;15.27;100.00;99008.38;5074180;28;19924;-78
2021/12/12 13:02:24;;;;;;;;;;;;;;;15.54;100.00;99005.03;5084606;28;19936;-79
2021/12/12 13:04:58;;;;;;;;;;;;;;;15.65;100.00;99005.41;5090025;28;19928;-78
2021/12/12 13:07:33;;;;;;;;;;;;;;;15.31;100.00;99011.09;5089355;28;19931;-77
2021/12/12 13:10:02;;;;;;;;;;;;;;;15.11;100.00;99016.22;5094394;28;19924;-78
2021/12/12 13:12:36;;;;;;;;;;;;;;;15.35;100.00;99020.97;5096018;28;19974;-78
2021/12/12 13:15:08;;;;;;;;;;;;;;;15.03;100.00;99012.84;5095891;28;19932;-78
2021/12/12 13:17:56;;;;;;;;;;;;;;;14.91;100.00;99007.25;5111544;28;19924;-78
2021/12/12 13:20:51;;;;;;;;;;;;;;;14.98;100.00;98996.53;5095642;28;19923;-78
2021/12/12 13:23:28;;;;;;;;;;;;;;;15.20;100.00;99008.66;5095793;28;20018;-77
2021/12/12 13:26:01;;;;;;;;;;;;;;;15.15;100.00;99011.22;5095860;28;19924;-78